createdAt,value
2022-10-18T00:01:26.485Z,41.27
2022-10-18T00:03:55.435Z,41.73
2022-10-18T00:06:24.484Z,37.97
2022-10-18T00:08:53.754Z,41.83
2022-10-18T00:11:23.052Z,35.13
2022-10-18T00:13:52.183Z,34.53
2022-10-18T00:16:22.884Z,34.83
2022-10-18T00:18:52.003Z,38.27
2022-10-18T00:21:23.572Z,34.13
2022-10-18T00:23:54.060Z,36.07
2022-10-18T00:26:25.458Z,34.97
2022-10-18T00:28:57.527Z,33.13
2022-10-18T00:31:30.147Z,32.03
2022-10-18T00:34:00.816Z,34.97
2022-10-18T00:36:31.924Z,32.83
2022-10-18T00:39:01.736Z,33.67
2022-10-18T00:41:32.760Z,32.43
2022-10-18T00:44:04.122Z,33.20
2022-10-18T00:46:35.946Z,30.20
2022-10-18T00:49:07.376Z,31.60
2022-10-18T00:51:55.204Z,31.20
2022-10-18T00:54:25.059Z,27.83
2022-10-18T00:56:54.376Z,29.83
2022-10-18T00:59:25.031Z,30.23
2022-10-18T01:01:55.480Z,30.00
2022-10-18T01:04:25.719Z,32.77
2022-10-18T01:07:01.157Z,29.47
2022-10-18T01:09:35.399Z,28.87
2022-10-18T01:12:18.170Z,28.07
2022-10-18T01:14:55.264Z,33.77
2022-10-18T01:17:33.878Z,31.20
2022-10-18T01:20:29.117Z,29.90
2022-10-18T01:23:02.421Z,30.77
2022-10-18T01:25:50.088Z,27.60
2022-10-18T01:28:36.309Z,27.07
2022-10-18T01:31:11.125Z,28.37
2022-10-18T01:33:44.628Z,37.03
2022-10-18T01:36:19.770Z,26.93
2022-10-18T01:38:52.277Z,30.10
2022-10-18T01:41:23.699Z,30.20
2022-10-18T01:43:57.732Z,29.30
2022-10-18T01:46:30.781Z,31.17
2022-10-18T01:49:00.700Z,30.07
2022-10-18T01:51:33.148Z,28.87
2022-10-18T01:54:02.983Z,28.20
2022-10-18T01:56:40.240Z,32.37
2022-10-18T01:59:32.029Z,30.37
2022-10-18T02:02:16.010Z,31.17
2022-10-18T02:04:52.980Z,30.97
2022-10-18T02:07:30.300Z,32.00
2022-10-18T02:12:38.532Z,26.73
2022-10-18T02:15:10.222Z,29.43
2022-10-18T02:17:41.617Z,28.57
2022-10-18T02:20:11.755Z,29.50
2022-10-18T02:22:43.171Z,32.30
2022-10-18T02:25:18.531Z,27.37
2022-10-18T02:27:47.783Z,30.73
2022-10-18T02:30:17.457Z,31.43
2022-10-18T02:32:55.610Z,32.17
2022-10-18T02:35:30.669Z,32.17
2022-10-18T02:38:00.489Z,33.37
2022-10-18T02:40:29.326Z,28.67
2022-10-18T02:42:59.800Z,30.97
2022-10-18T02:45:29.444Z,35.53
2022-10-18T02:47:59.797Z,29.63
2022-10-18T02:50:28.703Z,31.40
2022-10-18T02:52:57.800Z,31.10
2022-10-18T02:55:26.600Z,32.10
2022-10-18T02:57:55.373Z,32.73
2022-10-18T03:00:24.211Z,34.73
2022-10-18T03:02:54.143Z,33.90
2022-10-18T03:05:24.392Z,32.20
2022-10-18T03:07:53.294Z,31.20
2022-10-18T03:10:22.172Z,33.07
2022-10-18T03:12:51.103Z,32.20
2022-10-18T03:15:19.974Z,31.53
2022-10-18T03:17:48.815Z,32.57
2022-10-18T03:20:17.791Z,34.80
2022-10-18T03:22:48.099Z,37.23
2022-10-18T03:25:17.060Z,35.57
2022-10-18T03:27:46.050Z,29.90
2022-10-18T03:30:15.130Z,32.60
2022-10-18T03:32:44.005Z,34.87
2022-10-18T03:35:12.894Z,32.57
2022-10-18T03:37:41.747Z,30.93
2022-10-18T03:40:13.050Z,35.47
2022-10-18T03:42:41.930Z,33.43
2022-10-18T03:45:11.664Z,31.00
2022-10-18T03:47:40.411Z,32.20
2022-10-18T03:50:09.966Z,34.97
2022-10-18T03:52:38.776Z,31.60
2022-10-18T03:55:08.916Z,33.17
2022-10-18T03:57:39.276Z,32.67
2022-10-18T04:00:09.767Z,40.40
2022-10-18T04:02:38.597Z,37.40
2022-10-18T04:05:08.119Z,38.10
2022-10-18T04:07:41.276Z,29.83
2022-10-18T04:10:10.609Z,35.80
2022-10-18T04:12:40.888Z,32.43
2022-10-18T04:15:11.041Z,34.17
2022-10-18T04:17:39.763Z,33.40
2022-10-18T04:20:09.871Z,36.00
2022-10-18T04:22:38.660Z,37.50
2022-10-18T04:25:08.241Z,34.03
2022-10-18T04:27:37.112Z,34.20
2022-10-18T04:30:08.755Z,36.30
2022-10-18T04:32:37.616Z,36.03
2022-10-18T04:35:07.522Z,37.50
2022-10-18T04:37:36.586Z,36.50
2022-10-18T04:40:06.026Z,35.97
2022-10-18T04:42:35.425Z,35.60
2022-10-18T04:45:04.356Z,34.17
2022-10-18T04:47:34.819Z,34.50
2022-10-18T04:50:03.904Z,35.87
2022-10-18T04:52:32.785Z,37.40
2022-10-18T04:55:01.670Z,35.90
2022-10-18T04:57:30.758Z,35.33
2022-10-18T05:00:00.342Z,35.57
2022-10-18T05:02:29.308Z,33.30
2022-10-18T05:04:59.784Z,36.47
2022-10-18T05:07:28.628Z,32.23
2022-10-18T05:09:57.602Z,35.30
2022-10-18T05:12:26.489Z,33.90
2022-10-18T05:14:56.817Z,34.90
2022-10-18T05:17:25.950Z,33.27
2022-10-18T05:19:54.802Z,33.43
2022-10-18T05:22:25.144Z,33.47
2022-10-18T05:24:53.941Z,34.00
2022-10-18T05:27:22.652Z,30.67
2022-10-18T05:29:51.495Z,32.00
2022-10-18T05:32:20.283Z,29.33
2022-10-18T05:34:49.163Z,31.70
2022-10-18T05:37:17.950Z,33.03
2022-10-18T05:39:48.264Z,30.57
2022-10-18T05:42:17.082Z,28.57
2022-10-18T05:44:46.006Z,32.67
2022-10-18T05:47:15.007Z,29.57
2022-10-18T05:49:43.856Z,31.97
2022-10-18T05:52:12.666Z,27.73
2022-10-18T05:54:41.895Z,31.17
2022-10-18T05:57:12.177Z,28.30
2022-10-18T05:59:41.067Z,27.83
2022-10-18T06:02:11.299Z,30.63
2022-10-18T06:04:40.286Z,27.47
2022-10-18T06:07:11.256Z,29.10
2022-10-18T06:09:40.335Z,30.53
2022-10-18T06:12:09.466Z,31.63
2022-10-18T06:14:40.054Z,26.03
2022-10-18T06:17:08.851Z,27.17
2022-10-18T06:19:38.103Z,25.93
2022-10-18T06:22:07.246Z,24.57
2022-10-18T06:24:36.253Z,27.43
2022-10-18T06:27:09.285Z,27.60
2022-10-18T06:29:41.245Z,25.47
2022-10-18T06:32:11.672Z,24.20
2022-10-18T06:34:40.725Z,24.80
2022-10-18T06:37:09.707Z,24.77
2022-10-18T06:39:38.632Z,26.17
2022-10-18T06:42:07.545Z,24.73
2022-10-18T06:44:36.445Z,25.40
2022-10-18T06:47:08.885Z,26.87
2022-10-18T06:49:37.907Z,24.97
2022-10-18T06:52:07.646Z,24.17
2022-10-18T06:54:36.661Z,22.10
2022-10-18T06:57:05.584Z,27.03
2022-10-18T06:59:34.498Z,28.87
2022-10-18T07:02:03.474Z,25.77
2022-10-18T07:04:33.840Z,27.57
2022-10-18T07:07:02.710Z,27.63
2022-10-18T07:09:31.630Z,21.37
2022-10-18T07:12:00.599Z,27.07
2022-10-18T07:14:29.615Z,27.27
2022-10-18T07:17:01.020Z,24.10
2022-10-18T07:19:29.858Z,27.50
2022-10-18T07:22:00.479Z,21.73
2022-10-18T07:24:29.469Z,23.07
2022-10-18T07:26:58.472Z,24.57
2022-10-18T07:29:27.441Z,31.53
2022-10-18T07:31:56.399Z,25.53
2022-10-18T07:34:25.318Z,22.97
2022-10-18T07:36:54.227Z,24.97
2022-10-18T07:39:24.709Z,26.77
2022-10-18T07:41:53.599Z,24.43
2022-10-18T07:44:22.525Z,21.27
2022-10-18T07:46:51.347Z,22.63
2022-10-18T07:49:20.246Z,23.40
2022-10-18T07:51:49.097Z,22.60
2022-10-18T07:54:18.048Z,24.50
2022-10-18T07:56:48.378Z,24.17
2022-10-18T07:59:17.147Z,24.67
2022-10-18T08:01:46.059Z,20.60
2022-10-18T08:04:16.471Z,24.43
2022-10-18T08:06:45.698Z,24.17
2022-10-18T08:09:14.548Z,28.10
2022-10-18T08:11:43.390Z,25.77
2022-10-18T08:14:13.649Z,24.27
2022-10-18T08:16:42.519Z,22.70
2022-10-18T08:19:13.051Z,24.37
2022-10-18T08:21:41.884Z,25.30
2022-10-18T08:24:10.684Z,23.43
2022-10-18T08:26:39.457Z,19.67
2022-10-18T08:29:22.484Z,25.70
2022-10-18T08:31:54.595Z,24.90
2022-10-18T08:34:23.529Z,19.60
2022-10-18T08:36:52.350Z,23.00
2022-10-18T08:39:21.150Z,24.40
2022-10-18T08:42:15.647Z,23.93
2022-10-18T08:44:46.711Z,23.57
2022-10-18T08:47:20.235Z,22.50
2022-10-18T08:49:52.457Z,21.17
2022-10-18T08:52:32.429Z,22.57
2022-10-18T08:55:04.167Z,21.27
2022-10-18T08:57:34.315Z,23.27
2022-10-18T09:00:07.516Z,18.17
2022-10-18T09:02:56.035Z,22.47
2022-10-18T09:05:30.571Z,18.60
2022-10-18T09:08:26.586Z,19.63
2022-10-18T09:11:04.151Z,19.37
2022-10-18T09:14:08.865Z,18.77
2022-10-18T09:16:45.527Z,20.00
2022-10-18T09:19:27.297Z,20.13
2022-10-18T09:21:58.437Z,16.30
2022-10-18T09:24:32.581Z,18.53
2022-10-18T09:27:07.330Z,16.67
2022-10-18T09:29:49.523Z,18.10
2022-10-18T09:32:29.785Z,15.60
2022-10-18T09:35:06.382Z,16.27
2022-10-18T09:37:36.894Z,16.17
2022-10-18T09:40:18.175Z,14.93
2022-10-18T09:42:55.994Z,15.10
2022-10-18T09:45:29.417Z,14.63
2022-10-18T09:48:06.357Z,12.27
2022-10-18T09:50:42.734Z,14.20
2022-10-18T09:53:20.216Z,12.67
2022-10-18T09:56:01.038Z,13.63
2022-10-18T09:58:44.910Z,11.20
2022-10-18T10:01:17.137Z,13.40
2022-10-18T10:03:46.204Z,12.97
2022-10-18T10:06:28.764Z,12.37
2022-10-18T10:09:02.529Z,12.93
2022-10-18T10:11:38.191Z,12.47
2022-10-18T10:16:51.261Z,11.53
2022-10-18T10:19:23.001Z,13.97
2022-10-18T10:21:58.398Z,12.77
2022-10-18T10:24:35.130Z,11.50
2022-10-18T10:27:06.498Z,10.80
2022-10-18T10:29:56.754Z,12.40
2022-10-18T10:32:29.227Z,13.07
2022-10-18T10:34:58.413Z,11.03
2022-10-18T10:37:37.260Z,14.57
2022-10-18T10:40:27.853Z,11.57
2022-10-18T10:43:18.306Z,12.93
2022-10-18T10:46:02.003Z,13.07
2022-10-18T10:48:35.061Z,11.83
2022-10-18T10:51:07.815Z,14.70
2022-10-18T10:53:50.850Z,12.20
2022-10-18T10:56:26.507Z,11.93
2022-10-18T10:58:57.309Z,9.73
2022-10-18T11:01:32.345Z,10.63
2022-10-18T11:04:24.323Z,11.47
2022-10-18T11:07:01.670Z,12.93
2022-10-18T11:09:45.880Z,11.10
2022-10-18T11:12:30.878Z,9.00
2022-10-18T11:15:10.342Z,10.00
2022-10-18T11:17:44.619Z,8.67
2022-10-18T11:20:23.538Z,11.97
2022-10-18T11:23:01.500Z,9.30
2022-10-18T11:25:46.585Z,9.37
2022-10-18T11:28:22.436Z,7.40
2022-10-18T11:31:02.325Z,6.57
2022-10-18T11:34:07.096Z,7.00
2022-10-18T11:36:36.815Z,6.57
2022-10-18T11:39:11.228Z,10.03
2022-10-18T11:41:49.908Z,7.63
2022-10-18T11:44:25.698Z,8.43
2022-10-18T11:47:04.710Z,9.03
2022-10-18T11:49:54.380Z,9.73
2022-10-18T11:52:30.220Z,8.93
2022-10-18T11:55:21.234Z,8.00
2022-10-18T11:57:59.834Z,8.73
2022-10-18T12:00:45.060Z,10.40
2022-10-18T12:03:29.824Z,9.60
2022-10-18T12:06:02.712Z,7.83
2022-10-18T12:08:36.489Z,7.40
2022-10-18T12:11:11.342Z,8.00
2022-10-18T12:13:48.143Z,9.17
2022-10-18T12:16:18.251Z,8.07
2022-10-18T12:18:54.732Z,9.53
2022-10-18T12:21:26.618Z,8.63
2022-10-18T12:24:00.102Z,7.63
2022-10-18T12:26:30.208Z,8.43
2022-10-18T12:29:10.139Z,8.20
2022-10-18T12:31:48.444Z,10.57
2022-10-18T12:34:36.622Z,8.97
2022-10-18T12:37:38.216Z,8.40
2022-10-18T12:40:16.787Z,9.93
2022-10-18T12:42:50.333Z,10.23
2022-10-18T12:45:30.500Z,13.33
2022-10-18T12:48:02.233Z,10.70
2022-10-18T12:50:37.029Z,10.13
2022-10-18T12:53:19.814Z,14.07
2022-10-18T12:55:51.839Z,13.37
2022-10-18T12:58:32.279Z,11.20
2022-10-18T13:01:08.178Z,14.03
2022-10-18T13:03:59.367Z,13.97
2022-10-18T13:07:08.206Z,10.63
2022-10-18T13:09:38.211Z,14.33
2022-10-18T13:12:40.217Z,16.30
2022-10-18T13:15:31.051Z,13.57
2022-10-18T13:18:10.674Z,15.97
2022-10-18T13:20:44.098Z,13.00
2022-10-18T13:23:37.827Z,13.67
2022-10-18T13:26:18.543Z,11.47
2022-10-18T13:28:54.198Z,13.50
2022-10-18T13:31:25.556Z,16.63
2022-10-18T13:33:55.995Z,15.03
2022-10-18T13:36:26.668Z,13.50
2022-10-18T13:39:05.244Z,17.63
2022-10-18T13:41:57.478Z,12.70
2022-10-18T13:44:30.780Z,13.50
2022-10-18T13:47:36.888Z,12.43
2022-10-18T13:50:31.820Z,12.33
2022-10-18T13:53:40.915Z,13.50
2022-10-18T13:56:27.350Z,15.97
2022-10-18T13:59:21.929Z,14.60
2022-10-18T14:02:16.803Z,14.93
2022-10-18T14:05:23.712Z,15.60
2022-10-18T14:08:03.093Z,14.30
2022-10-18T14:11:00.634Z,12.87
2022-10-18T14:13:36.416Z,13.57
2022-10-18T14:16:11.327Z,14.60
2022-10-18T14:18:44.165Z,14.43
2022-10-18T14:21:22.096Z,12.43
2022-10-18T14:23:54.007Z,14.97
2022-10-18T14:26:23.206Z,15.30
2022-10-18T14:29:04.886Z,15.87
2022-10-18T14:31:34.606Z,15.10
2022-10-18T14:34:04.136Z,17.43
2022-10-18T14:36:41.132Z,13.87
2022-10-18T14:39:21.356Z,17.80
2022-10-18T14:41:51.966Z,19.60
2022-10-18T14:44:23.253Z,20.60
2022-10-18T14:46:53.986Z,17.57
2022-10-18T14:49:23.374Z,13.53
2022-10-18T14:51:54.598Z,13.17
2022-10-18T14:54:30.771Z,16.00
2022-10-18T14:57:01.685Z,13.83
2022-10-18T14:59:33.958Z,22.57
2022-10-18T15:02:06.253Z,20.60
2022-10-18T15:04:35.389Z,19.13
2022-10-18T15:07:06.084Z,17.70
2022-10-18T15:09:37.567Z,15.93
2022-10-18T15:12:08.717Z,24.53
2022-10-18T15:14:38.244Z,26.43
2022-10-18T15:17:13.563Z,18.50
2022-10-18T15:19:54.304Z,15.53
2022-10-18T15:22:33.204Z,19.67
2022-10-18T15:25:15.737Z,18.43
2022-10-18T15:27:48.174Z,17.60
2022-10-18T15:30:24.493Z,14.20
2022-10-18T15:33:02.879Z,18.90
2022-10-18T15:35:33.591Z,13.70
2022-10-18T15:38:14.151Z,14.27
2022-10-18T15:40:45.298Z,14.87
2022-10-18T15:43:37.985Z,14.07
2022-10-18T15:46:07.717Z,12.43
2022-10-18T15:48:38.838Z,13.17
2022-10-18T15:51:09.353Z,11.43
2022-10-18T15:53:46.053Z,16.37
2022-10-18T15:56:33.880Z,12.90
2022-10-18T15:59:05.144Z,10.93
2022-10-18T16:01:39.584Z,12.57
2022-10-18T16:04:15.696Z,13.23
2022-10-18T16:06:44.483Z,15.30
2022-10-18T16:09:17.972Z,14.53
2022-10-18T16:11:54.258Z,18.90
2022-10-18T16:14:26.808Z,13.37
2022-10-18T16:17:01.399Z,13.50
2022-10-18T16:19:30.543Z,13.80
2022-10-18T16:22:05.243Z,11.30
2022-10-18T16:24:35.537Z,10.47
2022-10-18T16:27:06.025Z,11.83
2022-10-18T16:29:35.212Z,14.53
2022-10-18T16:32:04.059Z,11.33
2022-10-18T16:34:33.484Z,13.07
2022-10-18T16:37:02.312Z,10.40
2022-10-18T16:39:35.186Z,11.23
2022-10-18T16:42:05.634Z,11.13
2022-10-18T16:44:34.534Z,12.23
2022-10-18T16:47:03.560Z,12.53
2022-10-18T16:49:32.731Z,11.23
2022-10-18T16:52:01.619Z,10.23
2022-10-18T16:54:30.759Z,12.13
2022-10-18T16:56:59.619Z,11.23
2022-10-18T16:59:32.108Z,11.27
2022-10-18T17:02:06.123Z,17.83
2022-10-18T17:04:35.745Z,18.03
2022-10-18T17:07:06.278Z,12.77
2022-10-18T17:09:37.303Z,12.60
2022-10-18T17:12:06.919Z,15.97
2022-10-18T17:14:37.270Z,13.60
2022-10-18T17:17:06.322Z,14.07
2022-10-18T17:19:35.380Z,17.67
2022-10-18T17:22:04.357Z,17.80
2022-10-18T17:24:33.373Z,14.97
2022-10-18T17:27:02.350Z,12.60
2022-10-18T17:29:32.201Z,19.60
2022-10-18T17:32:03.102Z,15.03
2022-10-18T17:34:32.594Z,32.20
2022-10-18T17:37:02.379Z,19.07
2022-10-18T17:39:31.503Z,14.63
2022-10-18T17:42:01.119Z,16.97
2022-10-18T17:44:30.627Z,12.50
2022-10-18T17:46:59.980Z,15.00
2022-10-18T17:49:30.820Z,18.83
2022-10-18T17:52:04.536Z,20.00
2022-10-18T17:54:36.312Z,17.20
2022-10-18T17:57:05.899Z,16.17
2022-10-18T17:59:35.304Z,17.37
2022-10-18T18:02:05.092Z,13.63
2022-10-18T18:04:37.348Z,21.50
2022-10-18T18:07:07.311Z,16.30
2022-10-18T18:09:40.574Z,14.13
2022-10-18T18:12:10.540Z,17.77
2022-10-18T18:14:39.869Z,15.77
2022-10-18T18:17:09.780Z,11.93
2022-10-18T18:19:40.984Z,10.77
2022-10-18T18:22:11.222Z,13.47
2022-10-18T18:24:40.582Z,11.27
2022-10-18T18:27:10.098Z,12.57
2022-10-18T18:29:39.420Z,9.27
2022-10-18T18:32:09.027Z,11.37
2022-10-18T18:34:41.239Z,10.43
2022-10-18T18:37:12.302Z,11.50
2022-10-18T18:39:41.660Z,13.47
2022-10-18T18:42:12.605Z,8.43
2022-10-18T18:44:46.586Z,13.77
2022-10-18T18:47:15.611Z,14.83
2022-10-18T18:49:44.969Z,9.87
2022-10-18T18:52:16.128Z,9.33
2022-10-18T18:54:46.367Z,11.63
2022-10-18T18:57:15.895Z,10.70
2022-10-18T18:59:45.247Z,13.50
2022-10-18T19:02:14.808Z,15.00
2022-10-18T19:04:44.208Z,14.10
2022-10-18T19:07:16.303Z,7.13
2022-10-18T19:09:47.746Z,9.43
2022-10-18T19:12:20.523Z,12.10
2022-10-18T19:14:50.835Z,13.10
2022-10-18T19:17:20.296Z,8.07
2022-10-18T19:19:49.435Z,12.07
2022-10-18T19:22:21.529Z,12.03
2022-10-18T19:24:50.584Z,10.93
2022-10-18T19:27:20.027Z,10.30
2022-10-18T19:29:49.526Z,15.53
2022-10-18T19:32:19.343Z,14.20
2022-10-18T19:34:49.816Z,15.60
2022-10-18T19:37:21.156Z,11.77
2022-10-18T19:39:50.814Z,11.83
2022-10-18T19:42:24.251Z,13.20
2022-10-18T19:44:55.198Z,11.27
2022-10-18T19:47:24.629Z,12.17
2022-10-18T19:50:04.067Z,11.60
2022-10-18T19:52:35.461Z,10.27
2022-10-18T19:55:05.418Z,11.93
2022-10-18T19:57:34.762Z,17.97
2022-10-18T20:00:06.737Z,11.60
2022-10-18T20:02:39.317Z,14.33
2022-10-18T20:05:09.055Z,15.77
2022-10-18T20:07:41.610Z,15.87
2022-10-18T20:10:10.798Z,16.27
2022-10-18T20:12:39.815Z,25.90
2022-10-18T20:15:10.050Z,13.90
2022-10-18T20:17:39.471Z,20.80
2022-10-18T20:20:09.784Z,16.23
2022-10-18T20:22:40.184Z,20.17
2022-10-18T20:25:09.571Z,15.73
2022-10-18T20:27:38.781Z,17.60
2022-10-18T20:30:10.541Z,20.43
2022-10-18T20:32:40.618Z,14.90
2022-10-18T20:35:12.527Z,14.50
2022-10-18T20:37:42.901Z,20.07
2022-10-18T20:40:13.258Z,18.73
2022-10-18T20:42:42.277Z,22.10
2022-10-18T20:45:12.722Z,31.77
2022-10-18T20:47:41.534Z,34.00
2022-10-18T20:50:11.321Z,25.27
2022-10-18T20:52:41.589Z,28.47
2022-10-18T20:55:10.590Z,35.47
2022-10-18T20:57:39.654Z,31.20
2022-10-18T21:00:11.934Z,29.13
2022-10-18T21:02:41.064Z,32.57
2022-10-18T21:05:10.904Z,30.23
2022-10-18T21:07:39.877Z,38.07
2022-10-18T21:10:11.176Z,28.30
2022-10-18T21:12:40.136Z,40.70
2022-10-18T21:15:10.201Z,46.53
2022-10-18T21:17:39.244Z,34.57
2022-10-18T21:20:10.235Z,110.33
2022-10-18T21:22:39.099Z,35.93
2022-10-18T21:25:11.111Z,40.37
2022-10-18T21:27:40.203Z,77.67
2022-10-18T21:30:09.995Z,40.50
2022-10-18T21:32:38.861Z,33.93
2022-10-18T21:35:08.666Z,25.03
2022-10-18T21:37:37.516Z,42.37
2022-10-18T21:40:07.824Z,31.00
2022-10-18T21:42:38.203Z,55.43
2022-10-18T21:45:08.860Z,38.83
2022-10-18T21:47:37.816Z,28.80
2022-10-18T21:50:07.078Z,30.33
2022-10-18T21:52:36.130Z,35.87
2022-10-18T21:55:07.411Z,32.90
2022-10-18T21:57:38.049Z,46.53
2022-10-18T22:00:08.495Z,30.30
2022-10-18T22:02:37.525Z,56.63
2022-10-18T22:05:08.434Z,36.77
2022-10-18T22:07:40.256Z,51.33
2022-10-18T22:10:09.983Z,73.80
2022-10-18T22:12:40.459Z,48.47
2022-10-18T22:15:10.259Z,32.87
2022-10-18T22:17:39.038Z,49.83
2022-10-18T22:20:09.310Z,80.63
2022-10-18T22:22:38.108Z,26.93
2022-10-18T22:25:07.748Z,34.67
2022-10-18T22:27:36.769Z,33.20
2022-10-18T22:30:08.270Z,22.00
2022-10-18T22:32:37.062Z,39.20
2022-10-18T22:35:06.626Z,30.00
2022-10-18T22:37:35.857Z,34.97
2022-10-18T22:40:05.185Z,28.90
2022-10-18T22:45:03.668Z,32.17
2022-10-18T22:47:34.455Z,24.80
2022-10-18T22:50:03.732Z,32.77
2022-10-18T22:52:32.781Z,19.97
2022-10-18T22:55:01.886Z,26.40
2022-10-18T22:57:31.430Z,32.40
2022-10-18T23:00:00.282Z,40.43
2022-10-18T23:02:29.110Z,27.00
2022-10-18T23:04:59.407Z,28.63
2022-10-18T23:07:28.281Z,26.07
2022-10-18T23:09:57.100Z,26.43
2022-10-18T23:12:26.087Z,29.47
2022-10-18T23:14:54.868Z,30.97
2022-10-18T23:17:23.720Z,37.87
2022-10-18T23:19:52.508Z,24.63
2022-10-18T23:22:22.819Z,32.17
2022-10-18T23:24:51.699Z,27.47
2022-10-18T23:27:20.557Z,31.37
2022-10-18T23:29:49.339Z,31.00
2022-10-18T23:32:18.705Z,26.60
2022-10-18T23:34:47.495Z,25.67
2022-10-18T23:37:16.326Z,28.13
2022-10-18T23:39:46.575Z,21.67
2022-10-18T23:42:15.437Z,23.73
2022-10-18T23:44:44.338Z,15.63
2022-10-18T23:47:13.170Z,24.60
2022-10-18T23:49:42.138Z,23.07
2022-10-18T23:52:11.337Z,22.03
2022-10-18T23:54:40.163Z,27.40
2022-10-18T23:57:10.496Z,20.67
2022-10-18T23:59:39.270Z,27.40
